sensor_id;sensor_type;location;lat;lon;timestamp;temperature;humidity
53294;DHT22;39181;53.440;5.644;2023-06-04T00:01:52;10.60;99.90
53294;DHT22;39181;53.440;5.644;2023-06-04T00:04:18;10.60;99.90
53294;DHT22;39181;53.440;5.644;2023-06-04T00:06:43;10.60;99.90
53294;DHT22;39181;53.440;5.644;2023-06-04T00:09:09;10.50;99.90
53294;DHT22;39181;53.440;5.644;2023-06-04T00:11:34;10.50;99.90
53294;DHT22;39181;53.440;5.644;2023-06-04T00:14:02;10.50;99.90
53294;DHT22;39181;53.440;5.644;2023-06-04T00:16:28;10.50;99.90
53294;DHT22;39181;53.440;5.644;2023-06-04T00:18:53;10.50;99.90
53294;DHT22;39181;53.440;5.644;2023-06-04T00:21:19;10.40;99.90
53294;DHT22;39181;53.440;5.644;2023-06-04T00:23:44;10.40;99.90
53294;DHT22;39181;53.440;5.644;2023-06-04T00:26:10;10.40;99.90
53294;DHT22;39181;53.440;5.644;2023-06-04T00:28:35;10.40;99.90
53294;DHT22;39181;53.440;5.644;2023-06-04T00:31:05;10.40;99.90
53294;DHT22;39181;53.440;5.644;2023-06-04T00:33:31;10.40;99.90
53294;DHT22;39181;53.440;5.644;2023-06-04T00:35:57;10.40;99.90
53294;DHT22;39181;53.440;5.644;2023-06-04T00:38:22;10.40;99.90
53294;DHT22;39181;53.440;5.644;2023-06-04T00:40:48;10.40;99.90
53294;DHT22;39181;53.440;5.644;2023-06-04T00:43:14;10.40;99.90
53294;DHT22;39181;53.440;5.644;2023-06-04T00:45:40;10.40;99.90
53294;DHT22;39181;53.440;5.644;2023-06-04T00:48:06;10.30;99.90
53294;DHT22;39181;53.440;5.644;2023-06-04T00:50:32;10.30;99.90
53294;DHT22;39181;53.440;5.644;2023-06-04T00:52:59;10.30;99.90
53294;DHT22;39181;53.440;5.644;2023-06-04T00:55:24;10.30;99.90
53294;DHT22;39181;53.440;5.644;2023-06-04T00:57:50;10.30;99.90
53294;DHT22;39181;53.440;5.644;2023-06-04T01:00:16;10.20;99.90
53294;DHT22;39181;53.440;5.644;2023-06-04T01:02:43;10.30;99.90
53294;DHT22;39181;53.440;5.644;2023-06-04T01:05:50;10.20;99.90
53294;DHT22;39181;53.440;5.644;2023-06-04T01:08:18;10.20;99.90
53294;DHT22;39181;53.440;5.644;2023-06-04T01:10:51;10.20;99.90
53294;DHT22;39181;53.440;5.644;2023-06-04T01:13:17;10.20;99.90
53294;DHT22;39181;53.440;5.644;2023-06-04T01:15:42;10.20;99.90
53294;DHT22;39181;53.440;5.644;2023-06-04T01:18:08;10.20;99.90
53294;DHT22;39181;53.440;5.644;2023-06-04T01:20:43;10.20;99.90
53294;DHT22;39181;53.440;5.644;2023-06-04T01:25:41;10.10;99.90
53294;DHT22;39181;53.440;5.644;2023-06-04T01:28:10;10.10;99.90
53294;DHT22;39181;53.440;5.644;2023-06-04T01:30:38;10.00;99.90
53294;DHT22;39181;53.440;5.644;2023-06-04T01:33:09;10.00;99.90
53294;DHT22;39181;53.440;5.644;2023-06-04T01:35:38;10.00;99.90
53294;DHT22;39181;53.440;5.644;2023-06-04T01:38:05;10.00;99.90
53294;DHT22;39181;53.440;5.644;2023-06-04T01:40:30;10.00;99.90
53294;DHT22;39181;53.440;5.644;2023-06-04T01:42:59;9.90;99.90
53294;DHT22;39181;53.440;5.644;2023-06-04T01:45:27;9.90;99.90
53294;DHT22;39181;53.440;5.644;2023-06-04T01:47:53;9.90;99.90
53294;DHT22;39181;53.440;5.644;2023-06-04T01:50:19;9.90;99.90
53294;DHT22;39181;53.440;5.644;2023-06-04T01:52:45;9.90;99.90
53294;DHT22;39181;53.440;5.644;2023-06-04T01:55:12;9.80;99.90
53294;DHT22;39181;53.440;5.644;2023-06-04T01:57:40;9.80;99.90
53294;DHT22;39181;53.440;5.644;2023-06-04T02:00:07;9.80;99.90
53294;DHT22;39181;53.440;5.644;2023-06-04T02:02:48;9.80;99.90
53294;DHT22;39181;53.440;5.644;2023-06-04T02:05:14;9.80;99.90
53294;DHT22;39181;53.440;5.644;2023-06-04T02:07:42;9.70;99.90
53294;DHT22;39181;53.440;5.644;2023-06-04T02:10:09;9.70;99.90
53294;DHT22;39181;53.440;5.644;2023-06-04T02:12:37;9.70;99.90
53294;DHT22;39181;53.440;5.644;2023-06-04T02:15:03;9.70;99.90
53294;DHT22;39181;53.440;5.644;2023-06-04T02:17:29;9.70;99.90
53294;DHT22;39181;53.440;5.644;2023-06-04T02:19:58;9.60;99.90
53294;DHT22;39181;53.440;5.644;2023-06-04T02:22:25;9.60;99.90
53294;DHT22;39181;53.440;5.644;2023-06-04T02:24:51;9.50;99.90
53294;DHT22;39181;53.440;5.644;2023-06-04T02:27:17;9.50;99.90
53294;DHT22;39181;53.440;5.644;2023-06-04T02:29:43;9.50;99.90
53294;DHT22;39181;53.440;5.644;2023-06-04T02:32:09;9.50;99.90
53294;DHT22;39181;53.440;5.644;2023-06-04T02:34:34;9.60;99.90
53294;DHT22;39181;53.440;5.644;2023-06-04T02:37:01;9.50;99.90
53294;DHT22;39181;53.440;5.644;2023-06-04T02:39:26;9.50;99.90
53294;DHT22;39181;53.440;5.644;2023-06-04T02:41:52;9.50;99.90
53294;DHT22;39181;53.440;5.644;2023-06-04T02:44:18;9.50;99.90
53294;DHT22;39181;53.440;5.644;2023-06-04T02:46:44;9.50;99.90
53294;DHT22;39181;53.440;5.644;2023-06-04T02:49:10;9.60;99.90
53294;DHT22;39181;53.440;5.644;2023-06-04T02:51:40;9.50;99.90
53294;DHT22;39181;53.440;5.644;2023-06-04T02:54:06;9.50;99.90
53294;DHT22;39181;53.440;5.644;2023-06-04T02:56:31;9.50;99.90
53294;DHT22;39181;53.440;5.644;2023-06-04T02:58:57;9.50;99.90
53294;DHT22;39181;53.440;5.644;2023-06-04T03:01:23;9.50;99.90
53294;DHT22;39181;53.440;5.644;2023-06-04T03:03:50;9.50;99.90
53294;DHT22;39181;53.440;5.644;2023-06-04T03:06:17;9.50;99.90
53294;DHT22;39181;53.440;5.644;2023-06-04T03:08:43;9.60;99.90
53294;DHT22;39181;53.440;5.644;2023-06-04T03:11:09;9.50;99.90
53294;DHT22;39181;53.440;5.644;2023-06-04T03:13:35;9.50;99.90
53294;DHT22;39181;53.440;5.644;2023-06-04T03:16:01;9.50;99.90
53294;DHT22;39181;53.440;5.644;2023-06-04T03:18:30;9.50;99.90
53294;DHT22;39181;53.440;5.644;2023-06-04T03:20:56;9.50;99.90
53294;DHT22;39181;53.440;5.644;2023-06-04T03:23:23;9.50;99.90
53294;DHT22;39181;53.440;5.644;2023-06-04T03:25:48;9.50;99.90
53294;DHT22;39181;53.440;5.644;2023-06-04T03:28:14;9.50;99.90
53294;DHT22;39181;53.440;5.644;2023-06-04T03:30:40;9.50;99.90
53294;DHT22;39181;53.440;5.644;2023-06-04T03:33:07;9.60;99.90
53294;DHT22;39181;53.440;5.644;2023-06-04T03:35:32;9.60;99.90
53294;DHT22;39181;53.440;5.644;2023-06-04T03:37:58;9.60;99.90
53294;DHT22;39181;53.440;5.644;2023-06-04T03:40:24;9.60;99.90
53294;DHT22;39181;53.440;5.644;2023-06-04T03:42:49;9.60;99.90
53294;DHT22;39181;53.440;5.644;2023-06-04T03:45:15;9.60;99.90
53294;DHT22;39181;53.440;5.644;2023-06-04T03:47:40;9.60;99.90
53294;DHT22;39181;53.440;5.644;2023-06-04T03:50:06;9.70;99.90
53294;DHT22;39181;53.440;5.644;2023-06-04T03:52:32;9.80;99.90
53294;DHT22;39181;53.440;5.644;2023-06-04T03:54:58;9.90;99.90
53294;DHT22;39181;53.440;5.644;2023-06-04T03:57:24;9.90;99.90
53294;DHT22;39181;53.440;5.644;2023-06-04T03:59:49;10.00;99.90
53294;DHT22;39181;53.440;5.644;2023-06-04T04:02:15;10.10;99.90
53294;DHT22;39181;53.440;5.644;2023-06-04T04:04:43;10.10;99.90
53294;DHT22;39181;53.440;5.644;2023-06-04T04:07:09;10.20;99.90
53294;DHT22;39181;53.440;5.644;2023-06-04T04:09:36;10.30;99.90
53294;DHT22;39181;53.440;5.644;2023-06-04T04:12:02;10.30;99.90
53294;DHT22;39181;53.440;5.644;2023-06-04T04:14:28;10.40;99.90
53294;DHT22;39181;53.440;5.644;2023-06-04T04:16:53;10.60;99.90
53294;DHT22;39181;53.440;5.644;2023-06-04T04:19:19;10.60;99.90
53294;DHT22;39181;53.440;5.644;2023-06-04T04:21:46;10.70;99.90
53294;DHT22;39181;53.440;5.644;2023-06-04T04:24:25;10.80;99.90
53294;DHT22;39181;53.440;5.644;2023-06-04T04:26:51;10.80;99.90
53294;DHT22;39181;53.440;5.644;2023-06-04T04:29:20;10.90;99.90
53294;DHT22;39181;53.440;5.644;2023-06-04T04:31:53;11.10;99.90
53294;DHT22;39181;53.440;5.644;2023-06-04T04:34:22;11.10;99.90
53294;DHT22;39181;53.440;5.644;2023-06-04T04:36:49;11.20;99.90
53294;DHT22;39181;53.440;5.644;2023-06-04T04:39:27;11.30;99.90
53294;DHT22;39181;53.440;5.644;2023-06-04T04:41:54;11.40;99.90
53294;DHT22;39181;53.440;5.644;2023-06-04T04:44:19;11.50;99.90
53294;DHT22;39181;53.440;5.644;2023-06-04T04:46:45;11.60;99.90
53294;DHT22;39181;53.440;5.644;2023-06-04T04:49:11;11.60;99.90
53294;DHT22;39181;53.440;5.644;2023-06-04T04:51:36;11.70;99.90
53294;DHT22;39181;53.440;5.644;2023-06-04T04:54:02;11.70;99.90
53294;DHT22;39181;53.440;5.644;2023-06-04T04:56:28;11.80;99.90
53294;DHT22;39181;53.440;5.644;2023-06-04T04:58:55;11.90;99.90
53294;DHT22;39181;53.440;5.644;2023-06-04T05:01:21;12.00;99.90
53294;DHT22;39181;53.440;5.644;2023-06-04T05:03:48;12.00;99.90
53294;DHT22;39181;53.440;5.644;2023-06-04T05:06:13;12.20;99.90
53294;DHT22;39181;53.440;5.644;2023-06-04T05:08:39;12.40;99.90
53294;DHT22;39181;53.440;5.644;2023-06-04T05:11:04;12.60;99.90
53294;DHT22;39181;53.440;5.644;2023-06-04T05:13:30;12.90;99.90
53294;DHT22;39181;53.440;5.644;2023-06-04T05:15:56;13.10;99.90
53294;DHT22;39181;53.440;5.644;2023-06-04T05:18:22;13.30;99.90
53294;DHT22;39181;53.440;5.644;2023-06-04T05:20:58;13.40;99.90
53294;DHT22;39181;53.440;5.644;2023-06-04T05:23:26;13.40;99.90
53294;DHT22;39181;53.440;5.644;2023-06-04T05:25:52;13.40;99.90
53294;DHT22;39181;53.440;5.644;2023-06-04T05:28:17;13.50;99.90
53294;DHT22;39181;53.440;5.644;2023-06-04T05:30:43;13.60;99.90
53294;DHT22;39181;53.440;5.644;2023-06-04T05:33:09;13.70;99.90
53294;DHT22;39181;53.440;5.644;2023-06-04T05:35:52;13.90;99.90
53294;DHT22;39181;53.440;5.644;2023-06-04T05:38:19;13.90;99.90
53294;DHT22;39181;53.440;5.644;2023-06-04T05:40:45;14.00;99.90
53294;DHT22;39181;53.440;5.644;2023-06-04T05:43:11;14.00;99.90
53294;DHT22;39181;53.440;5.644;2023-06-04T05:45:37;14.00;99.90
53294;DHT22;39181;53.440;5.644;2023-06-04T05:48:03;14.10;99.90
53294;DHT22;39181;53.440;5.644;2023-06-04T05:50:29;14.10;99.90
53294;DHT22;39181;53.440;5.644;2023-06-04T05:52:55;14.20;99.90
53294;DHT22;39181;53.440;5.644;2023-06-04T05:55:22;14.30;99.90
53294;DHT22;39181;53.440;5.644;2023-06-04T05:57:48;14.40;99.90
53294;DHT22;39181;53.440;5.644;2023-06-04T06:00:14;14.40;99.90
53294;DHT22;39181;53.440;5.644;2023-06-04T06:02:40;14.40;99.90
53294;DHT22;39181;53.440;5.644;2023-06-04T06:05:06;14.50;99.90
53294;DHT22;39181;53.440;5.644;2023-06-04T06:07:34;15.00;99.90
53294;DHT22;39181;53.440;5.644;2023-06-04T06:09:59;16.00;99.90
53294;DHT22;39181;53.440;5.644;2023-06-04T06:12:25;17.10;99.90
53294;DHT22;39181;53.440;5.644;2023-06-04T06:14:50;17.80;99.90
53294;DHT22;39181;53.440;5.644;2023-06-04T06:17:16;18.40;99.90
53294;DHT22;39181;53.440;5.644;2023-06-04T06:19:42;18.80;99.90
53294;DHT22;39181;53.440;5.644;2023-06-04T06:22:07;19.30;99.90
53294;DHT22;39181;53.440;5.644;2023-06-04T06:24:33;19.60;99.90
53294;DHT22;39181;53.440;5.644;2023-06-04T06:26:59;19.80;99.90
53294;DHT22;39181;53.440;5.644;2023-06-04T06:29:24;19.70;99.90
53294;DHT22;39181;53.440;5.644;2023-06-04T06:31:50;19.90;99.90
53294;DHT22;39181;53.440;5.644;2023-06-04T06:34:16;19.60;99.90
53294;DHT22;39181;53.440;5.644;2023-06-04T06:36:41;19.10;99.90
53294;DHT22;39181;53.440;5.644;2023-06-04T06:39:08;18.70;99.90
53294;DHT22;39181;53.440;5.644;2023-06-04T06:41:34;18.40;99.90
53294;DHT22;39181;53.440;5.644;2023-06-04T06:44:00;18.10;99.90
53294;DHT22;39181;53.440;5.644;2023-06-04T06:46:25;17.70;99.90
53294;DHT22;39181;53.440;5.644;2023-06-04T06:48:51;17.50;99.90
53294;DHT22;39181;53.440;5.644;2023-06-04T06:51:17;17.50;99.90
53294;DHT22;39181;53.440;5.644;2023-06-04T06:53:43;17.50;99.90
53294;DHT22;39181;53.440;5.644;2023-06-04T06:56:08;17.50;99.90
53294;DHT22;39181;53.440;5.644;2023-06-04T06:58:34;17.50;99.90
53294;DHT22;39181;53.440;5.644;2023-06-04T07:01:00;17.80;99.90
53294;DHT22;39181;53.440;5.644;2023-06-04T07:03:26;17.90;99.90
53294;DHT22;39181;53.440;5.644;2023-06-04T07:05:51;18.00;99.90
53294;DHT22;39181;53.440;5.644;2023-06-04T07:08:17;18.10;99.90
53294;DHT22;39181;53.440;5.644;2023-06-04T07:10:43;18.00;99.90
53294;DHT22;39181;53.440;5.644;2023-06-04T07:13:09;17.90;99.90
53294;DHT22;39181;53.440;5.644;2023-06-04T07:15:34;17.80;99.90
53294;DHT22;39181;53.440;5.644;2023-06-04T07:18:00;17.90;99.90
53294;DHT22;39181;53.440;5.644;2023-06-04T07:20:26;17.70;99.90
53294;DHT22;39181;53.440;5.644;2023-06-04T07:22:51;17.60;99.90
53294;DHT22;39181;53.440;5.644;2023-06-04T07:25:17;17.50;99.90
53294;DHT22;39181;53.440;5.644;2023-06-04T07:27:42;17.50;99.90
53294;DHT22;39181;53.440;5.644;2023-06-04T07:30:09;17.40;99.90
53294;DHT22;39181;53.440;5.644;2023-06-04T07:32:34;17.60;99.90
53294;DHT22;39181;53.440;5.644;2023-06-04T07:35:01;17.70;99.90
53294;DHT22;39181;53.440;5.644;2023-06-04T07:37:27;17.60;99.90
53294;DHT22;39181;53.440;5.644;2023-06-04T07:39:52;17.50;99.90
53294;DHT22;39181;53.440;5.644;2023-06-04T07:42:18;17.60;99.90
53294;DHT22;39181;53.440;5.644;2023-06-04T07:44:43;17.80;99.90
53294;DHT22;39181;53.440;5.644;2023-06-04T07:47:09;17.70;99.90
53294;DHT22;39181;53.440;5.644;2023-06-04T07:49:35;17.80;99.90
53294;DHT22;39181;53.440;5.644;2023-06-04T07:52:01;17.80;99.90
53294;DHT22;39181;53.440;5.644;2023-06-04T07:54:26;17.80;99.90
53294;DHT22;39181;53.440;5.644;2023-06-04T07:56:52;17.70;99.90
53294;DHT22;39181;53.440;5.644;2023-06-04T07:59:24;17.70;99.90
53294;DHT22;39181;53.440;5.644;2023-06-04T08:01:50;17.70;99.90
53294;DHT22;39181;53.440;5.644;2023-06-04T08:04:17;17.70;99.90
53294;DHT22;39181;53.440;5.644;2023-06-04T08:06:43;17.70;99.90
53294;DHT22;39181;53.440;5.644;2023-06-04T08:09:10;17.50;99.90
53294;DHT22;39181;53.440;5.644;2023-06-04T08:11:37;17.50;99.90
53294;DHT22;39181;53.440;5.644;2023-06-04T08:14:02;17.40;99.90
53294;DHT22;39181;53.440;5.644;2023-06-04T08:16:28;17.50;99.90
53294;DHT22;39181;53.440;5.644;2023-06-04T08:18:53;17.40;99.90
53294;DHT22;39181;53.440;5.644;2023-06-04T08:21:26;17.20;99.90
53294;DHT22;39181;53.440;5.644;2023-06-04T08:23:52;17.40;99.90
53294;DHT22;39181;53.440;5.644;2023-06-04T08:26:18;17.20;99.90
53294;DHT22;39181;53.440;5.644;2023-06-04T08:28:47;17.20;99.90
53294;DHT22;39181;53.440;5.644;2023-06-04T08:31:13;17.30;99.90
53294;DHT22;39181;53.440;5.644;2023-06-04T08:33:39;17.20;99.90
53294;DHT22;39181;53.440;5.644;2023-06-04T08:36:06;17.40;99.90
53294;DHT22;39181;53.440;5.644;2023-06-04T08:38:32;17.40;99.90
53294;DHT22;39181;53.440;5.644;2023-06-04T08:41:02;17.50;99.90
53294;DHT22;39181;53.440;5.644;2023-06-04T08:43:30;17.50;99.90
53294;DHT22;39181;53.440;5.644;2023-06-04T08:45:59;17.50;99.90
53294;DHT22;39181;53.440;5.644;2023-06-04T08:48:32;17.60;99.90
53294;DHT22;39181;53.440;5.644;2023-06-04T08:50:59;17.40;99.90
53294;DHT22;39181;53.440;5.644;2023-06-04T08:53:26;17.60;99.90
53294;DHT22;39181;53.440;5.644;2023-06-04T08:55:53;17.60;99.90
53294;DHT22;39181;53.440;5.644;2023-06-04T08:58:19;17.80;99.90
53294;DHT22;39181;53.440;5.644;2023-06-04T09:00:45;17.80;99.90
53294;DHT22;39181;53.440;5.644;2023-06-04T09:03:10;17.70;99.90
53294;DHT22;39181;53.440;5.644;2023-06-04T09:05:39;17.60;99.90
53294;DHT22;39181;53.440;5.644;2023-06-04T09:08:08;17.80;99.90
53294;DHT22;39181;53.440;5.644;2023-06-04T09:10:37;17.80;99.90
53294;DHT22;39181;53.440;5.644;2023-06-04T09:13:03;17.70;99.90
53294;DHT22;39181;53.440;5.644;2023-06-04T09:15:31;17.80;99.90
53294;DHT22;39181;53.440;5.644;2023-06-04T09:17:57;17.80;99.90
53294;DHT22;39181;53.440;5.644;2023-06-04T09:20:24;17.90;99.90
53294;DHT22;39181;53.440;5.644;2023-06-04T09:22:50;18.00;99.90
53294;DHT22;39181;53.440;5.644;2023-06-04T09:25:23;17.90;99.90
53294;DHT22;39181;53.440;5.644;2023-06-04T09:27:50;17.90;99.90
53294;DHT22;39181;53.440;5.644;2023-06-04T09:30:16;18.00;99.90
53294;DHT22;39181;53.440;5.644;2023-06-04T09:32:42;18.00;99.90
53294;DHT22;39181;53.440;5.644;2023-06-04T09:35:10;18.00;99.90
53294;DHT22;39181;53.440;5.644;2023-06-04T09:37:37;18.20;99.90
53294;DHT22;39181;53.440;5.644;2023-06-04T09:40:04;18.20;99.90
53294;DHT22;39181;53.440;5.644;2023-06-04T09:42:41;18.00;99.90
53294;DHT22;39181;53.440;5.644;2023-06-04T09:45:08;17.90;99.90
53294;DHT22;39181;53.440;5.644;2023-06-04T09:47:44;17.90;99.90
53294;DHT22;39181;53.440;5.644;2023-06-04T09:50:12;18.00;99.90
53294;DHT22;39181;53.440;5.644;2023-06-04T09:52:38;18.20;99.90
53294;DHT22;39181;53.440;5.644;2023-06-04T09:55:16;18.30;99.90
53294;DHT22;39181;53.440;5.644;2023-06-04T09:57:47;18.10;99.90
53294;DHT22;39181;53.440;5.644;2023-06-04T10:00:16;18.10;99.90
53294;DHT22;39181;53.440;5.644;2023-06-04T10:02:44;18.20;99.90
53294;DHT22;39181;53.440;5.644;2023-06-04T10:05:11;18.10;99.90
53294;DHT22;39181;53.440;5.644;2023-06-04T10:07:43;18.30;99.90
53294;DHT22;39181;53.440;5.644;2023-06-04T10:10:14;18.20;99.90
53294;DHT22;39181;53.440;5.644;2023-06-04T10:12:41;18.20;99.90
53294;DHT22;39181;53.440;5.644;2023-06-04T10:15:12;17.90;99.90
53294;DHT22;39181;53.440;5.644;2023-06-04T10:17:38;17.80;99.90
53294;DHT22;39181;53.440;5.644;2023-06-04T10:20:05;17.90;99.90
53294;DHT22;39181;53.440;5.644;2023-06-04T10:22:34;18.10;99.90
53294;DHT22;39181;53.440;5.644;2023-06-04T10:25:00;18.30;99.90
53294;DHT22;39181;53.440;5.644;2023-06-04T10:27:26;18.50;99.90
53294;DHT22;39181;53.440;5.644;2023-06-04T10:29:52;18.40;99.90
53294;DHT22;39181;53.440;5.644;2023-06-04T10:32:18;18.40;99.90
53294;DHT22;39181;53.440;5.644;2023-06-04T10:34:46;18.30;99.90
53294;DHT22;39181;53.440;5.644;2023-06-04T10:37:24;18.30;99.90
53294;DHT22;39181;53.440;5.644;2023-06-04T10:39:57;18.40;99.90
53294;DHT22;39181;53.440;5.644;2023-06-04T10:42:23;18.30;99.90
53294;DHT22;39181;53.440;5.644;2023-06-04T10:44:51;18.30;99.90
53294;DHT22;39181;53.440;5.644;2023-06-04T10:47:25;18.20;99.90
53294;DHT22;39181;53.440;5.644;2023-06-04T10:49:51;18.20;99.90
53294;DHT22;39181;53.440;5.644;2023-06-04T10:52:17;18.30;99.90
53294;DHT22;39181;53.440;5.644;2023-06-04T10:54:45;18.30;99.90
53294;DHT22;39181;53.440;5.644;2023-06-04T10:57:12;18.20;99.90
53294;DHT22;39181;53.440;5.644;2023-06-04T10:59:38;18.20;99.90
53294;DHT22;39181;53.440;5.644;2023-06-04T11:02:08;18.20;99.90
53294;DHT22;39181;53.440;5.644;2023-06-04T11:04:35;18.40;99.90
53294;DHT22;39181;53.440;5.644;2023-06-04T11:07:03;18.20;99.90
53294;DHT22;39181;53.440;5.644;2023-06-04T11:09:30;18.20;99.90
53294;DHT22;39181;53.440;5.644;2023-06-04T11:11:58;18.40;99.90
53294;DHT22;39181;53.440;5.644;2023-06-04T11:14:24;18.30;99.90
53294;DHT22;39181;53.440;5.644;2023-06-04T11:16:50;18.30;99.90
53294;DHT22;39181;53.440;5.644;2023-06-04T11:19:15;18.30;99.90
53294;DHT22;39181;53.440;5.644;2023-06-04T11:21:41;18.20;99.90
53294;DHT22;39181;53.440;5.644;2023-06-04T11:24:06;18.40;99.90
53294;DHT22;39181;53.440;5.644;2023-06-04T11:26:34;18.30;99.90
53294;DHT22;39181;53.440;5.644;2023-06-04T11:29:00;18.40;99.90
53294;DHT22;39181;53.440;5.644;2023-06-04T11:31:26;18.30;99.90
53294;DHT22;39181;53.440;5.644;2023-06-04T11:33:52;18.50;99.90
53294;DHT22;39181;53.440;5.644;2023-06-04T11:36:27;18.50;99.90
53294;DHT22;39181;53.440;5.644;2023-06-04T11:39:03;18.50;99.90
53294;DHT22;39181;53.440;5.644;2023-06-04T11:41:34;18.30;99.90
53294;DHT22;39181;53.440;5.644;2023-06-04T11:44:05;18.30;99.90
53294;DHT22;39181;53.440;5.644;2023-06-04T11:46:32;18.30;99.90
53294;DHT22;39181;53.440;5.644;2023-06-04T11:48:59;18.20;99.90
53294;DHT22;39181;53.440;5.644;2023-06-04T11:51:25;18.10;99.90
53294;DHT22;39181;53.440;5.644;2023-06-04T11:53:51;18.30;99.90
53294;DHT22;39181;53.440;5.644;2023-06-04T11:56:17;18.20;99.90
53294;DHT22;39181;53.440;5.644;2023-06-04T11:58:43;18.30;99.90
53294;DHT22;39181;53.440;5.644;2023-06-04T12:01:11;18.30;99.90
53294;DHT22;39181;53.440;5.644;2023-06-04T12:03:40;18.20;99.90
53294;DHT22;39181;53.440;5.644;2023-06-04T12:06:17;18.50;99.90
53294;DHT22;39181;53.440;5.644;2023-06-04T12:08:54;18.40;99.90
53294;DHT22;39181;53.440;5.644;2023-06-04T12:11:29;18.50;99.90
53294;DHT22;39181;53.440;5.644;2023-06-04T12:14:04;18.30;99.90
53294;DHT22;39181;53.440;5.644;2023-06-04T12:16:30;18.40;99.90
53294;DHT22;39181;53.440;5.644;2023-06-04T12:19:12;18.50;99.90
53294;DHT22;39181;53.440;5.644;2023-06-04T12:21:38;18.70;99.90
53294;DHT22;39181;53.440;5.644;2023-06-04T12:24:10;18.40;99.90
53294;DHT22;39181;53.440;5.644;2023-06-04T12:26:37;18.40;99.90
53294;DHT22;39181;53.440;5.644;2023-06-04T12:29:10;18.20;99.90
53294;DHT22;39181;53.440;5.644;2023-06-04T12:31:43;18.10;99.90
53294;DHT22;39181;53.440;5.644;2023-06-04T12:34:09;18.10;99.90
53294;DHT22;39181;53.440;5.644;2023-06-04T12:36:36;18.20;99.90
53294;DHT22;39181;53.440;5.644;2023-06-04T12:39:05;18.30;99.90
53294;DHT22;39181;53.440;5.644;2023-06-04T12:41:33;18.10;99.90
53294;DHT22;39181;53.440;5.644;2023-06-04T12:44:00;18.10;99.90
53294;DHT22;39181;53.440;5.644;2023-06-04T12:46:26;18.20;99.90
53294;DHT22;39181;53.440;5.644;2023-06-04T12:48:53;18.00;99.90
53294;DHT22;39181;53.440;5.644;2023-06-04T12:51:19;17.80;99.90
53294;DHT22;39181;53.440;5.644;2023-06-04T12:53:46;17.70;99.90
53294;DHT22;39181;53.440;5.644;2023-06-04T12:56:12;17.80;99.90
53294;DHT22;39181;53.440;5.644;2023-06-04T12:58:37;17.60;99.90
53294;DHT22;39181;53.440;5.644;2023-06-04T13:01:03;17.90;99.90
53294;DHT22;39181;53.440;5.644;2023-06-04T13:03:34;18.10;99.90
53294;DHT22;39181;53.440;5.644;2023-06-04T13:06:01;18.10;99.90
53294;DHT22;39181;53.440;5.644;2023-06-04T13:08:26;17.70;99.90
53294;DHT22;39181;53.440;5.644;2023-06-04T13:10:52;17.80;99.90
53294;DHT22;39181;53.440;5.644;2023-06-04T13:13:19;18.00;99.90
53294;DHT22;39181;53.440;5.644;2023-06-04T13:15:45;18.20;99.90
53294;DHT22;39181;53.440;5.644;2023-06-04T13:18:11;18.10;99.90
53294;DHT22;39181;53.440;5.644;2023-06-04T13:20:37;18.20;99.90
53294;DHT22;39181;53.440;5.644;2023-06-04T13:23:03;18.10;99.90
53294;DHT22;39181;53.440;5.644;2023-06-04T13:25:29;17.90;99.90
53294;DHT22;39181;53.440;5.644;2023-06-04T13:27:58;18.10;99.90
53294;DHT22;39181;53.440;5.644;2023-06-04T13:30:24;18.20;99.90
53294;DHT22;39181;53.440;5.644;2023-06-04T13:32:50;18.00;99.90
53294;DHT22;39181;53.440;5.644;2023-06-04T13:35:15;18.20;99.90
53294;DHT22;39181;53.440;5.644;2023-06-04T13:37:41;18.20;99.90
53294;DHT22;39181;53.440;5.644;2023-06-04T13:40:07;18.10;99.90
53294;DHT22;39181;53.440;5.644;2023-06-04T13:42:33;18.10;99.90
53294;DHT22;39181;53.440;5.644;2023-06-04T13:44:59;18.10;99.90
53294;DHT22;39181;53.440;5.644;2023-06-04T13:47:25;18.00;99.90
53294;DHT22;39181;53.440;5.644;2023-06-04T13:49:51;17.80;99.90
53294;DHT22;39181;53.440;5.644;2023-06-04T13:52:16;17.60;99.90
53294;DHT22;39181;53.440;5.644;2023-06-04T13:54:42;17.70;99.90
53294;DHT22;39181;53.440;5.644;2023-06-04T13:57:08;17.70;99.90
53294;DHT22;39181;53.440;5.644;2023-06-04T13:59:37;17.90;99.90
53294;DHT22;39181;53.440;5.644;2023-06-04T14:02:02;18.00;99.90
53294;DHT22;39181;53.440;5.644;2023-06-04T14:04:28;17.90;99.90
53294;DHT22;39181;53.440;5.644;2023-06-04T14:06:53;17.70;99.90
53294;DHT22;39181;53.440;5.644;2023-06-04T14:09:19;17.60;99.90
53294;DHT22;39181;53.440;5.644;2023-06-04T14:11:45;17.80;99.90
53294;DHT22;39181;53.440;5.644;2023-06-04T14:14:18;17.80;99.90
53294;DHT22;39181;53.440;5.644;2023-06-04T14:16:47;17.80;99.90
53294;DHT22;39181;53.440;5.644;2023-06-04T14:19:13;17.90;99.90
53294;DHT22;39181;53.440;5.644;2023-06-04T14:21:40;17.90;99.90
53294;DHT22;39181;53.440;5.644;2023-06-04T14:24:05;17.80;99.90
53294;DHT22;39181;53.440;5.644;2023-06-04T14:26:31;17.80;99.90
53294;DHT22;39181;53.440;5.644;2023-06-04T14:28:57;17.80;99.90
53294;DHT22;39181;53.440;5.644;2023-06-04T14:31:23;17.60;99.90
53294;DHT22;39181;53.440;5.644;2023-06-04T14:33:48;17.30;99.90
53294;DHT22;39181;53.440;5.644;2023-06-04T14:36:14;17.40;99.90
53294;DHT22;39181;53.440;5.644;2023-06-04T14:38:40;17.40;99.90
53294;DHT22;39181;53.440;5.644;2023-06-04T14:41:06;17.50;99.90
53294;DHT22;39181;53.440;5.644;2023-06-04T14:43:32;17.70;99.90
53294;DHT22;39181;53.440;5.644;2023-06-04T14:45:58;17.80;99.90
53294;DHT22;39181;53.440;5.644;2023-06-04T14:48:23;17.90;99.90
53294;DHT22;39181;53.440;5.644;2023-06-04T14:50:49;17.70;99.90
53294;DHT22;39181;53.440;5.644;2023-06-04T14:53:18;17.80;99.90
53294;DHT22;39181;53.440;5.644;2023-06-04T14:55:44;17.90;99.90
53294;DHT22;39181;53.440;5.644;2023-06-04T14:58:11;17.80;99.90
53294;DHT22;39181;53.440;5.644;2023-06-04T15:00:37;17.80;99.90
53294;DHT22;39181;53.440;5.644;2023-06-04T15:03:03;17.60;99.90
53294;DHT22;39181;53.440;5.644;2023-06-04T15:05:28;17.60;99.90
53294;DHT22;39181;53.440;5.644;2023-06-04T15:07:54;17.60;99.90
53294;DHT22;39181;53.440;5.644;2023-06-04T15:10:20;17.60;99.90
53294;DHT22;39181;53.440;5.644;2023-06-04T15:12:46;17.50;99.90
53294;DHT22;39181;53.440;5.644;2023-06-04T15:15:12;17.20;99.90
53294;DHT22;39181;53.440;5.644;2023-06-04T15:17:38;17.30;99.90
53294;DHT22;39181;53.440;5.644;2023-06-04T15:20:04;17.30;99.90
53294;DHT22;39181;53.440;5.644;2023-06-04T15:22:30;17.30;99.90
53294;DHT22;39181;53.440;5.644;2023-06-04T15:24:55;17.10;99.90
53294;DHT22;39181;53.440;5.644;2023-06-04T15:27:21;17.30;99.90
53294;DHT22;39181;53.440;5.644;2023-06-04T15:29:47;17.30;99.90
53294;DHT22;39181;53.440;5.644;2023-06-04T15:32:12;17.30;99.90
53294;DHT22;39181;53.440;5.644;2023-06-04T15:34:38;17.40;99.90